createdAt,value
2023-03-26T00:01:48.163Z,32.32
2023-03-26T00:05:48.195Z,32.26
2023-03-26T00:09:48.120Z,32.21
2023-03-26T00:13:48.122Z,32.29
2023-03-26T00:17:48.201Z,32.20
2023-03-26T00:21:48.127Z,32.24
2023-03-26T00:25:49.517Z,32.21
2023-03-26T00:29:48.136Z,32.28
2023-03-26T00:33:48.153Z,32.18
2023-03-26T00:37:48.137Z,32.14
2023-03-26T00:41:48.177Z,32.18
2023-03-26T00:45:48.162Z,32.10
2023-03-26T00:49:48.144Z,32.09
2023-03-26T00:53:48.136Z,32.12
2023-03-26T00:57:48.150Z,32.10
2023-03-26T01:01:48.186Z,32.18
2023-03-26T01:05:48.137Z,32.21
2023-03-26T01:09:48.154Z,32.15
2023-03-26T01:13:48.159Z,32.18
2023-03-26T01:17:48.216Z,32.14
2023-03-26T01:21:48.192Z,32.14
2023-03-26T01:25:48.178Z,32.06
2023-03-26T01:29:48.194Z,32.06
2023-03-26T01:33:48.236Z,32.05
2023-03-26T01:37:48.218Z,31.98
2023-03-26T01:41:48.233Z,32.03
2023-03-26T01:45:48.250Z,32.04
2023-03-26T01:49:48.190Z,32.01
2023-03-26T01:53:48.194Z,31.98
2023-03-26T01:57:48.213Z,31.99
2023-03-26T02:01:48.356Z,32.04
2023-03-26T02:05:48.299Z,31.98
2023-03-26T02:09:48.305Z,32.03
2023-03-26T02:13:48.319Z,31.99
2023-03-26T02:17:48.410Z,32.07
2023-03-26T02:21:48.398Z,32.04
2023-03-26T02:25:48.428Z,32.12
2023-03-26T02:29:48.425Z,32.07
2023-03-26T02:33:48.418Z,32.05
2023-03-26T02:37:48.444Z,32.04
2023-03-26T02:41:48.456Z,32.04
2023-03-26T02:45:48.505Z,32.06
2023-03-26T02:49:48.510Z,31.94
2023-03-26T02:53:48.538Z,31.93
2023-03-26T02:57:48.523Z,31.99
2023-03-26T03:01:48.504Z,31.91
2023-03-26T03:05:48.591Z,31.99
2023-03-26T03:09:48.517Z,31.93
2023-03-26T03:13:48.537Z,32.03
2023-03-26T03:17:48.580Z,31.93
2023-03-26T03:21:48.548Z,31.92
2023-03-26T03:25:48.569Z,31.91
2023-03-26T03:29:48.568Z,31.96
2023-03-26T03:33:48.582Z,32.05
2023-03-26T03:37:48.589Z,32.00
2023-03-26T03:41:48.587Z,31.96
2023-03-26T03:45:48.602Z,31.93
2023-03-26T03:49:48.570Z,31.90
2023-03-26T03:53:48.572Z,31.84
2023-03-26T03:57:48.565Z,31.83
2023-03-26T04:01:48.596Z,31.83
2023-03-26T04:05:48.564Z,31.76
2023-03-26T04:09:48.562Z,31.85
2023-03-26T04:13:48.563Z,31.85
2023-03-26T04:17:48.572Z,31.86
2023-03-26T04:21:48.562Z,31.85
2023-03-26T04:25:48.614Z,31.87
2023-03-26T04:29:48.563Z,31.82
2023-03-26T04:33:48.548Z,31.82
2023-03-26T04:37:48.564Z,31.74
2023-03-26T04:41:48.561Z,31.81
2023-03-26T04:45:48.548Z,31.85
2023-03-26T04:49:48.534Z,31.80
2023-03-26T04:53:48.516Z,31.74
2023-03-26T04:57:48.527Z,31.83
2023-03-26T05:01:48.528Z,31.73
2023-03-26T05:05:48.497Z,31.77
2023-03-26T05:09:48.483Z,31.85
2023-03-26T05:13:48.450Z,31.82
2023-03-26T05:17:48.615Z,31.78
2023-03-26T05:21:48.432Z,31.85
2023-03-26T05:25:48.497Z,31.74
2023-03-26T05:29:48.478Z,31.71
2023-03-26T05:33:48.485Z,31.77
2023-03-26T05:37:48.455Z,31.71
2023-03-26T05:41:48.466Z,31.68
2023-03-26T05:45:48.496Z,31.63
2023-03-26T05:49:48.484Z,31.58
2023-03-26T05:53:48.498Z,31.58
2023-03-26T05:57:48.648Z,31.60
2023-03-26T06:01:48.516Z,31.54
2023-03-26T06:05:48.484Z,31.57
2023-03-26T06:09:48.497Z,31.66
2023-03-26T06:13:48.480Z,31.60
2023-03-26T06:17:48.543Z,31.60
2023-03-26T06:21:48.480Z,31.66
2023-03-26T06:25:48.462Z,31.66
2023-03-26T06:29:49.005Z,31.62
2023-03-26T06:33:48.501Z,31.69
2023-03-26T06:37:48.515Z,31.63
2023-03-26T06:41:48.531Z,31.59
2023-03-26T06:45:48.541Z,31.63
2023-03-26T06:49:48.535Z,31.61
2023-03-26T06:53:48.522Z,31.57
2023-03-26T06:57:48.535Z,31.49
2023-03-26T07:01:48.568Z,31.54
2023-03-26T07:05:48.584Z,31.46
2023-03-26T07:09:48.600Z,31.49
2023-03-26T07:13:48.611Z,31.51
2023-03-26T07:17:48.675Z,31.52
2023-03-26T07:21:48.630Z,31.50
2023-03-26T07:25:48.693Z,31.52
2023-03-26T07:29:48.758Z,31.55
2023-03-26T07:33:48.783Z,31.54
2023-03-26T07:37:48.790Z,31.54
2023-03-26T07:41:48.925Z,31.49
2023-03-26T07:45:49.063Z,31.49
2023-03-26T07:49:49.057Z,31.55
2023-03-26T07:53:49.124Z,31.44
2023-03-26T07:57:49.162Z,31.43
2023-03-26T08:01:49.180Z,31.43
2023-03-26T08:05:49.188Z,31.45
2023-03-26T08:09:49.177Z,31.38
2023-03-26T08:13:49.218Z,31.45
2023-03-26T08:17:49.267Z,31.37
2023-03-26T08:21:49.249Z,31.40
2023-03-26T08:25:49.285Z,31.41
2023-03-26T08:29:49.264Z,31.35
2023-03-26T08:33:49.270Z,31.37
2023-03-26T08:37:49.372Z,31.35
2023-03-26T08:41:49.329Z,31.37
2023-03-26T08:45:49.319Z,31.35
2023-03-26T08:49:49.354Z,31.32
2023-03-26T08:53:49.414Z,31.29
2023-03-26T08:57:49.454Z,31.28
2023-03-26T09:01:49.517Z,31.28
2023-03-26T09:05:49.507Z,31.31
2023-03-26T09:09:49.523Z,31.32
2023-03-26T09:13:49.650Z,31.34
2023-03-26T09:17:49.836Z,31.26
2023-03-26T09:21:49.829Z,31.26
2023-03-26T09:25:49.860Z,31.19
2023-03-26T09:29:49.914Z,31.30
2023-03-26T09:33:49.892Z,31.31
2023-03-26T09:37:56.270Z,31.15
2023-03-26T09:41:50.969Z,31.26
2023-03-26T09:45:49.992Z,31.19
2023-03-26T09:49:49.939Z,31.24
2023-03-26T09:53:49.923Z,31.21
2023-03-26T09:57:50.023Z,31.21
2023-03-26T10:01:49.925Z,31.18
2023-03-26T10:05:49.993Z,31.16
2023-03-26T10:09:50.050Z,31.17
2023-03-26T10:13:50.112Z,31.23
2023-03-26T10:17:50.205Z,31.16
2023-03-26T10:21:50.184Z,31.16
2023-03-26T10:25:50.219Z,31.21
2023-03-26T10:29:50.241Z,31.09
2023-03-26T10:33:50.291Z,31.09
2023-03-26T10:37:50.296Z,31.13
2023-03-26T10:41:50.340Z,31.15
2023-03-26T10:45:50.458Z,31.09
2023-03-26T10:49:50.459Z,31.09
2023-03-26T10:53:50.560Z,31.07
2023-03-26T10:57:50.517Z,31.13
2023-03-26T11:01:50.525Z,31.11
2023-03-26T11:05:50.513Z,31.12
2023-03-26T11:09:50.494Z,31.07
2023-03-26T11:13:50.528Z,31.15
2023-03-26T11:17:50.559Z,31.10
2023-03-26T11:21:50.585Z,31.09
2023-03-26T11:25:50.502Z,31.09
2023-03-26T11:29:50.502Z,31.13
2023-03-26T11:33:50.517Z,31.10
2023-03-26T11:37:50.488Z,31.02
2023-03-26T11:41:50.497Z,31.09
2023-03-26T11:45:50.481Z,31.09
2023-03-26T11:49:50.502Z,31.16
2023-03-26T11:53:50.518Z,31.12
2023-03-26T11:57:50.542Z,31.16
2023-03-26T12:01:50.715Z,31.16
2023-03-26T12:05:50.605Z,31.15
2023-03-26T12:09:50.658Z,31.13
2023-03-26T12:13:50.629Z,31.18
2023-03-26T12:17:50.627Z,31.17
2023-03-26T12:21:50.650Z,31.18
2023-03-26T12:25:50.641Z,31.21
2023-03-26T12:29:50.654Z,31.21
2023-03-26T12:33:50.720Z,31.19
2023-03-26T12:37:50.716Z,31.26
2023-03-26T12:44:43.870Z,31.16
2023-03-26T12:47:46.182Z,31.19
2023-03-26T12:49:51.677Z,31.24
2023-03-26T12:53:50.663Z,31.27
2023-03-26T12:57:51.499Z,31.26
2023-03-26T13:01:50.681Z,31.18
2023-03-26T13:05:50.581Z,31.26
2023-03-26T13:09:52.889Z,31.19
2023-03-26T13:13:50.512Z,31.19
2023-03-26T13:17:50.603Z,31.26
2023-03-26T13:21:51.756Z,31.27
2023-03-26T13:25:50.420Z,31.26
2023-03-26T13:29:50.393Z,31.23
2023-03-26T13:33:50.352Z,31.24
2023-03-26T13:37:50.324Z,31.24
2023-03-26T13:41:50.310Z,31.27
2023-03-26T13:45:50.397Z,31.24
2023-03-26T13:49:50.234Z,31.27
2023-03-26T13:53:50.191Z,31.24
2023-03-26T13:57:50.145Z,31.30
2023-03-26T14:01:51.343Z,31.32
2023-03-26T14:05:50.066Z,31.29
2023-03-26T14:09:50.020Z,31.24
2023-03-26T14:13:49.975Z,31.33
2023-03-26T14:17:49.977Z,31.33
2023-03-26T14:21:49.925Z,31.33
2023-03-26T14:25:49.874Z,31.36
2023-03-26T14:29:56.856Z,31.35
2023-03-26T14:33:50.782Z,31.36
2023-03-26T14:37:49.724Z,31.39
2023-03-26T14:41:49.687Z,31.36
2023-03-26T14:45:49.651Z,31.41
2023-03-26T14:49:49.622Z,31.39
2023-03-26T14:53:49.599Z,31.44
2023-03-26T14:57:49.574Z,31.44
2023-03-26T15:01:49.574Z,31.47
2023-03-26T15:05:49.536Z,31.45
2023-03-26T15:09:49.497Z,31.58
2023-03-26T15:13:49.530Z,31.52
2023-03-26T15:17:49.550Z,31.54
2023-03-26T15:21:49.512Z,31.61
2023-03-26T15:25:49.500Z,31.54
2023-03-26T15:29:49.481Z,31.55
2023-03-26T15:33:49.478Z,31.54
2023-03-26T15:37:49.506Z,31.53
2023-03-26T15:41:49.498Z,31.54
2023-03-26T15:45:49.556Z,31.52
2023-03-26T15:49:49.544Z,31.50
2023-03-26T15:53:49.543Z,31.56
2023-03-26T15:57:49.546Z,31.54
2023-03-26T16:01:49.650Z,31.59
2023-03-26T16:05:49.603Z,31.56
2023-03-26T16:09:49.623Z,31.58
2023-03-26T16:13:49.637Z,31.61
2023-03-26T16:17:49.667Z,31.56
2023-03-26T16:21:49.652Z,31.58
2023-03-26T16:25:49.681Z,31.67
2023-03-26T16:29:49.676Z,31.61
2023-03-26T16:33:49.683Z,31.67
2023-03-26T16:37:49.707Z,31.74
2023-03-26T16:41:49.713Z,31.67
2023-03-26T16:45:49.733Z,31.64
2023-03-26T16:50:07.388Z,31.67
2023-03-26T16:53:50.673Z,31.67
2023-03-26T16:57:49.661Z,31.71
2023-03-26T17:01:49.645Z,31.67
2023-03-26T17:05:49.607Z,31.71
2023-03-26T17:09:49.541Z,31.69
2023-03-26T17:13:49.521Z,31.63
2023-03-26T17:17:49.566Z,31.65
2023-03-26T17:21:49.463Z,31.71
2023-03-26T17:25:49.429Z,31.63
2023-03-26T17:29:49.440Z,31.69
2023-03-26T17:33:49.523Z,31.69
2023-03-26T17:37:49.477Z,31.69
2023-03-26T17:41:49.465Z,31.67
2023-03-26T17:46:03.385Z,31.67
2023-03-26T17:49:50.448Z,31.70
2023-03-26T17:53:49.414Z,31.74
2023-03-26T17:57:49.395Z,31.77
2023-03-26T18:01:49.405Z,31.71
2023-03-26T18:05:49.321Z,31.75
2023-03-26T18:09:49.285Z,31.72
2023-03-26T18:13:49.244Z,31.80
2023-03-26T18:17:49.267Z,31.75
2023-03-26T18:21:49.317Z,31.78
2023-03-26T18:25:49.287Z,31.80
2023-03-26T18:29:49.286Z,31.80
2023-03-26T18:33:49.283Z,31.78
2023-03-26T18:37:49.293Z,31.83
2023-03-26T18:41:49.287Z,31.83
2023-03-26T18:45:49.318Z,31.84
2023-03-26T18:49:49.278Z,31.86
2023-03-26T18:53:49.330Z,31.76
2023-03-26T18:57:49.316Z,31.86
2023-03-26T19:01:49.375Z,31.87
2023-03-26T19:05:49.364Z,31.84
2023-03-26T19:09:49.332Z,31.88
2023-03-26T19:13:49.335Z,31.80
2023-03-26T19:17:49.381Z,31.89
2023-03-26T19:21:49.381Z,31.80
2023-03-26T19:25:49.310Z,31.80
2023-03-26T19:29:49.297Z,31.89
2023-03-26T19:33:49.340Z,31.88
2023-03-26T19:37:49.392Z,31.83
2023-03-26T19:41:49.397Z,31.89
2023-03-26T19:45:59.230Z,31.86
2023-03-26T19:49:50.360Z,31.92
2023-03-26T19:53:49.320Z,31.83
2023-03-26T19:57:49.291Z,31.88
2023-03-26T20:01:49.293Z,31.84
2023-03-26T20:05:49.235Z,31.84
2023-03-26T20:09:49.184Z,31.86
2023-03-26T20:13:49.160Z,31.90
2023-03-26T20:17:49.242Z,31.90
2023-03-26T20:21:49.075Z,31.83
2023-03-26T20:25:49.009Z,31.84
2023-03-26T20:29:48.968Z,31.81
2023-03-26T20:33:48.929Z,31.86
2023-03-26T20:37:48.910Z,31.86
2023-03-26T20:41:48.887Z,31.84
2023-03-26T20:45:48.865Z,31.83
2023-03-26T20:49:48.834Z,31.81
2023-03-26T20:53:48.834Z,31.84
2023-03-26T20:57:48.818Z,31.83
2023-03-26T21:01:48.830Z,31.81
2023-03-26T21:05:48.779Z,31.86
2023-03-26T21:09:48.817Z,31.84
2023-03-26T21:13:48.708Z,31.81
2023-03-26T21:17:48.743Z,31.83
2023-03-26T21:21:48.656Z,31.73
2023-03-26T21:25:48.614Z,31.81
2023-03-26T21:29:48.590Z,31.86
2023-03-26T21:33:48.552Z,31.84
2023-03-26T21:37:48.564Z,31.81
2023-03-26T21:41:48.517Z,31.82
2023-03-26T21:45:49.556Z,31.84
2023-03-26T21:49:48.470Z,31.84
2023-03-26T21:53:48.453Z,31.78
2023-03-26T21:57:48.442Z,31.81
2023-03-26T22:01:48.446Z,31.84
2023-03-26T22:05:48.393Z,31.82
2023-03-26T22:09:48.381Z,31.84
2023-03-26T22:13:48.337Z,31.81
2023-03-26T22:17:48.365Z,31.82
2023-03-26T22:21:48.319Z,31.78
2023-03-26T22:25:48.337Z,31.76
2023-03-26T22:29:48.353Z,31.75
2023-03-26T22:33:48.375Z,31.70
2023-03-26T22:37:48.381Z,31.73
2023-03-26T22:41:48.387Z,31.75
2023-03-26T22:45:48.410Z,31.78
2023-03-26T22:49:48.440Z,31.76
2023-03-26T22:53:48.450Z,31.79
2023-03-26T22:57:48.441Z,31.72
2023-03-26T23:01:48.497Z,31.75
2023-03-26T23:05:48.491Z,31.70
2023-03-26T23:09:48.498Z,31.76
2023-03-26T23:13:48.497Z,31.75
2023-03-26T23:17:54.551Z,31.71
2023-03-26T23:21:49.457Z,31.75
2023-03-26T23:25:48.428Z,31.72
2023-03-26T23:29:48.378Z,31.73
2023-03-26T23:33:48.336Z,31.71
2023-03-26T23:37:48.299Z,31.73
2023-03-26T23:41:48.268Z,31.73
2023-03-26T23:45:48.286Z,31.68
2023-03-26T23:49:48.193Z,31.70
2023-03-26T23:53:48.162Z,31.73
2023-03-26T23:57:48.151Z,31.68
